Time;durP1;ratioP1;P1;durP2;ratioP2;P2;SDS_P1;SDS_P2;PMS_P1;PMS_P2;Temp;Humidity;BMP_temperature;BMP_pressure;BME280_temperature;BME280_humidity;BME280_pressure;Samples;Min_cycle;Max_cycle;Signal;HPM_P1;HPM_P2
2022/08/25 00:01:30;;;;;;;0.60;0.60;;;;;;;;;;1856378;76;26703;-55
2022/08/25 00:03:58;;;;;;;0.60;0.60;;;;;;;;;;1863898;75;26221;-54
2022/08/25 00:06:25;;;;;;;1.47;0.60;;;;;;;;;;1873347;76;26326;-52
2022/08/25 00:08:52;;;;;;;0.50;0.50;;;;;;;;;;1872244;76;26281;-53
2022/08/25 00:11:23;;;;;;;0.60;0.60;;;;;;;;;;1864275;76;26269;-53
2022/08/25 00:13:52;;;;;;;0.62;0.62;;;;;;;;;;1863457;76;26299;-53
2022/08/25 00:16:21;;;;;;;0.60;0.60;;;;;;;;;;1859586;76;26819;-53
2022/08/25 00:18:50;;;;;;;0.50;0.50;;;;;;;;;;1862402;76;26354;-54
2022/08/25 00:21:17;;;;;;;0.50;0.50;;;;;;;;;;1868540;76;26276;-54
2022/08/25 00:23:45;;;;;;;0.50;0.50;;;;;;;;;;1867190;75;27032;-54
2022/08/25 00:26:13;;;;;;;0.60;0.60;;;;;;;;;;1862972;76;26276;-54
2022/08/25 00:28:40;;;;;;;0.60;0.60;;;;;;;;;;1850494;76;26260;-53
2022/08/25 00:31:09;;;;;;;0.55;0.55;;;;;;;;;;1859854;75;26721;-53
2022/08/25 00:33:36;;;;;;;0.60;0.60;;;;;;;;;;1865284;76;26721;-54
2022/08/25 00:36:05;;;;;;;0.60;0.60;;;;;;;;;;1865240;75;26740;-53
2022/08/25 00:38:32;;;;;;;0.57;0.57;;;;;;;;;;1869549;76;26838;-53
2022/08/25 00:41:05;;;;;;;0.60;0.60;;;;;;;;;;1873953;76;26364;-52
2022/08/25 00:43:37;;;;;;;0.60;0.60;;;;;;;;;;1877345;76;26268;-54
2022/08/25 00:46:04;;;;;;;0.57;0.57;;;;;;;;;;1864812;75;26246;-54
2022/08/25 00:48:32;;;;;;;0.82;0.50;;;;;;;;;;1872705;76;26284;-54
2022/08/25 00:51:01;;;;;;;0.50;0.50;;;;;;;;;;1869091;75;26241;-53
2022/08/25 00:53:30;;;;;;;0.60;0.60;;;;;;;;;;1880397;75;26334;-54
2022/08/25 00:55:58;;;;;;;0.50;0.50;;;;;;;;;;1863550;75;27578;-55
2022/08/25 00:58:26;;;;;;;0.60;0.60;;;;;;;;;;1858644;75;26350;-52
2022/08/25 01:00:56;;;;;;;0.68;0.68;;;;;;;;;;1875259;75;26194;-54
2022/08/25 01:03:25;;;;;;;0.68;0.68;;;;;;;;;;1860972;76;26257;-53
2022/08/25 01:05:53;;;;;;;0.60;0.60;;;;;;;;;;1865018;76;26246;-54
2022/08/25 01:08:22;;;;;;;0.57;0.57;;;;;;;;;;1866696;75;26287;-54
2022/08/25 01:10:50;;;;;;;0.60;0.60;;;;;;;;;;1878745;76;26320;-54
2022/08/25 01:13:27;;;;;;;0.70;0.70;;;;;;;;;;1876809;76;26268;-53
2022/08/25 01:15:56;;;;;;;0.60;0.60;;;;;;;;;;1864455;76;27518;-54
2022/08/25 01:18:23;;;;;;;0.60;0.60;;;;;;;;;;1858308;76;26441;-53
2022/08/25 01:20:52;;;;;;;0.70;0.70;;;;;;;;;;1861094;76;26616;-54
2022/08/25 01:23:21;;;;;;;0.50;0.50;;;;;;;;;;1848518;76;26320;-52
2022/08/25 01:25:50;;;;;;;0.50;0.50;;;;;;;;;;1846269;76;26346;-53
2022/08/25 01:28:18;;;;;;;0.60;0.60;;;;;;;;;;1836582;77;26302;-53
2022/08/25 01:30:46;;;;;;;0.40;0.40;;;;;;;;;;1847845;77;26258;-54
2022/08/25 01:33:13;;;;;;;0.55;0.55;;;;;;;;;;1848543;76;26670;-54
2022/08/25 01:35:40;;;;;;;0.50;0.50;;;;;;;;;;1848744;77;26291;-54
2022/08/25 01:38:08;;;;;;;0.70;0.70;;;;;;;;;;1848546;77;26381;-53
2022/08/25 01:40:36;;;;;;;0.60;0.60;;;;;;;;;;1849044;77;26651;-54
2022/08/25 01:43:05;;;;;;;0.40;0.40;;;;;;;;;;1848491;77;26302;-54
2022/08/25 01:45:33;;;;;;;0.60;0.60;;;;;;;;;;1849189;76;26326;-54
2022/08/25 01:48:00;;;;;;;0.70;0.70;;;;;;;;;;1839355;76;26334;-55
2022/08/25 01:50:28;;;;;;;0.53;0.53;;;;;;;;;;1836669;77;27262;-53
2022/08/25 01:53:00;;;;;;;0.50;0.50;;;;;;;;;;1853147;76;26258;-53
2022/08/25 01:55:27;;;;;;;0.60;0.60;;;;;;;;;;1843857;77;26302;-54
2022/08/25 01:57:55;;;;;;;0.40;0.40;;;;;;;;;;1845176;76;26267;-54
2022/08/25 02:00:23;;;;;;;0.40;0.40;;;;;;;;;;1845738;76;26340;-53
2022/08/25 02:02:50;;;;;;;0.50;0.50;;;;;;;;;;1838494;76;26781;-53
2022/08/25 02:05:18;;;;;;;0.60;0.60;;;;;;;;;;1848421;76;26302;-54
2022/08/25 02:07:45;;;;;;;0.40;0.40;;;;;;;;;;1862112;76;26326;-55
2022/08/25 02:10:13;;;;;;;0.50;0.50;;;;;;;;;;1826479;77;26711;-54
2022/08/25 02:12:40;;;;;;;0.50;0.50;;;;;;;;;;1849903;76;26541;-54
2022/08/25 02:15:08;;;;;;;0.60;0.60;;;;;;;;;;1855248;76;26251;-54
2022/08/25 02:17:36;;;;;;;0.57;0.57;;;;;;;;;;1860614;76;26747;-53
2022/08/25 02:20:04;;;;;;;0.50;0.50;;;;;;;;;;1871194;76;26730;-52
2022/08/25 02:22:32;;;;;;;0.50;0.50;;;;;;;;;;1875423;76;26714;-54
2022/08/25 02:24:59;;;;;;;0.60;0.60;;;;;;;;;;1876592;76;26202;-52
2022/08/25 02:27:27;;;;;;;0.50;0.50;;;;;;;;;;1867694;76;26314;-53
2022/08/25 02:29:54;;;;;;;0.50;0.42;;;;;;;;;;1866667;76;26934;-52
2022/08/25 02:32:22;;;;;;;0.50;0.50;;;;;;;;;;1865259;76;26265;-54
2022/08/25 02:34:49;;;;;;;0.60;0.60;;;;;;;;;;1868172;75;26213;-52
2022/08/25 02:37:16;;;;;;;0.50;0.50;;;;;;;;;;1855959;76;26284;-55
2022/08/25 02:39:43;;;;;;;0.50;0.50;;;;;;;;;;1867739;75;26256;-54
2022/08/25 02:42:11;;;;;;;0.50;0.50;;;;;;;;;;1862771;76;26250;-54
2022/08/25 02:44:38;;;;;;;0.40;0.40;;;;;;;;;;1863928;76;26237;-52
2022/08/25 02:47:05;;;;;;;0.50;0.50;;;;;;;;;;1860813;76;26323;-54
2022/08/25 02:49:34;;;;;;;0.47;0.47;;;;;;;;;;1864970;76;26344;-52
2022/08/25 02:52:01;;;;;;;0.45;0.45;;;;;;;;;;1860143;76;26282;-54
2022/08/25 02:54:28;;;;;;;0.40;0.40;;;;;;;;;;1879788;75;26267;-59
2022/08/25 02:56:56;;;;;;;0.50;0.50;;;;;;;;;;1850013;76;26769;-53
2022/08/25 02:59:23;;;;;;;0.57;0.57;;;;;;;;;;1879381;75;26299;-54
2022/08/25 03:01:50;;;;;;;0.50;0.50;;;;;;;;;;1878306;75;26527;-52
2022/08/25 03:04:17;;;;;;;0.50;0.50;;;;;;;;;;1894401;75;26300;-53
2022/08/25 03:06:46;;;;;;;0.47;0.47;;;;;;;;;;1873491;75;26334;-53
2022/08/25 03:09:13;;;;;;;0.50;0.50;;;;;;;;;;1862507;76;26411;-53
2022/08/25 03:11:41;;;;;;;0.50;0.50;;;;;;;;;;1859249;76;27381;-53
2022/08/25 03:14:09;;;;;;;0.45;0.45;;;;;;;;;;1859292;76;26269;-52
2022/08/25 03:16:37;;;;;;;0.40;0.40;;;;;;;;;;1865702;76;26305;-54
2022/08/25 03:19:04;;;;;;;0.40;0.40;;;;;;;;;;1871481;76;26199;-52
2022/08/25 03:21:31;;;;;;;0.47;0.47;;;;;;;;;;1872286;76;26261;-53
2022/08/25 03:23:59;;;;;;;0.40;0.40;;;;;;;;;;1868731;76;26738;-54
2022/08/25 03:29:12;;;;;;;0.53;0.53;;;;;;;;;;1868608;76;26292;-52
2022/08/25 03:31:41;;;;;;;1.55;0.50;;;;;;;;;;1877956;76;26741;-55
2022/08/25 03:34:09;;;;;;;0.50;0.50;;;;;;;;;;1863166;76;26280;-53
2022/08/25 03:36:36;;;;;;;0.40;0.40;;;;;;;;;;1875228;76;26756;-53
2022/08/25 03:39:04;;;;;;;0.50;0.50;;;;;;;;;;1855116;76;26252;-54
2022/08/25 03:41:31;;;;;;;0.30;0.30;;;;;;;;;;1864611;76;26330;-53
2022/08/25 03:43:59;;;;;;;0.40;0.40;;;;;;;;;;1855436;76;26726;-53
2022/08/25 03:46:28;;;;;;;0.50;0.50;;;;;;;;;;1867939;76;26348;-52
2022/08/25 03:48:56;;;;;;;0.35;0.35;;;;;;;;;;1857745;76;26769;-54
2022/08/25 03:51:24;;;;;;;0.40;0.40;;;;;;;;;;1852346;76;26261;-56
2022/08/25 03:53:52;;;;;;;0.30;0.30;;;;;;;;;;1867257;76;26740;-55
2022/08/25 03:56:20;;;;;;;0.40;0.40;;;;;;;;;;1870782;76;26257;-53
2022/08/25 03:58:47;;;;;;;0.37;0.37;;;;;;;;;;1865476;75;27034;-52
2022/08/25 04:01:15;;;;;;;0.40;0.40;;;;;;;;;;1864186;76;26221;-53
2022/08/25 04:03:42;;;;;;;0.40;0.40;;;;;;;;;;1861284;75;26304;-53
2022/08/25 04:06:10;;;;;;;0.40;0.40;;;;;;;;;;1848729;76;26276;-55
2022/08/25 04:08:38;;;;;;;0.40;0.40;;;;;;;;;;1859636;76;26788;-54
2022/08/25 04:11:06;;;;;;;0.30;0.30;;;;;;;;;;1861466;76;26371;-54
2022/08/25 04:13:35;;;;;;;0.40;0.40;;;;;;;;;;1863271;76;26728;-54
2022/08/25 04:16:04;;;;;;;0.40;0.40;;;;;;;;;;1868799;76;26281;-54
2022/08/25 04:18:33;;;;;;;0.85;0.40;;;;;;;;;;1856470;76;26759;-54
2022/08/25 04:21:04;;;;;;;1.17;0.40;;;;;;;;;;1861730;76;26336;-53
2022/08/25 04:23:32;;;;;;;0.50;0.35;;;;;;;;;;1831453;77;26813;-53
2022/08/25 04:26:00;;;;;;;0.55;0.50;;;;;;;;;;1843517;76;26392;-56
2022/08/25 04:28:27;;;;;;;0.50;0.50;;;;;;;;;;1845819;76;26739;-52
2022/08/25 04:30:54;;;;;;;0.40;0.40;;;;;;;;;;1843400;76;27412;-54
2022/08/25 04:33:22;;;;;;;0.50;0.50;;;;;;;;;;1828015;77;26314;-54
2022/08/25 04:35:50;;;;;;;0.40;0.40;;;;;;;;;;1828899;76;26291;-52
2022/08/25 04:38:17;;;;;;;1.35;0.60;;;;;;;;;;1831192;76;26331;-53
2022/08/25 04:40:45;;;;;;;2.35;0.42;;;;;;;;;;1833262;76;26751;-54
2022/08/25 04:43:12;;;;;;;0.50;0.50;;;;;;;;;;1830551;76;27333;-54
2022/08/25 04:45:39;;;;;;;6.62;0.50;;;;;;;;;;1839244;76;27362;-54
2022/08/25 04:48:07;;;;;;;0.80;0.40;;;;;;;;;;1835946;76;26256;-53
2022/08/25 04:50:35;;;;;;;0.65;0.60;;;;;;;;;;1858495;76;26288;-54
2022/08/25 04:53:03;;;;;;;0.95;0.55;;;;;;;;;;1837198;76;26260;-51
2022/08/25 04:55:30;;;;;;;1.95;0.65;;;;;;;;;;1843517;76;26728;-52
2022/08/25 04:57:57;;;;;;;2.20;0.72;;;;;;;;;;1839734;76;26212;-51
2022/08/25 05:00:25;;;;;;;6.53;0.70;;;;;;;;;;1832659;76;26330;-53
2022/08/25 05:02:54;;;;;;;2.22;0.60;;;;;;;;;;1847141;76;26398;-52
2022/08/25 05:05:21;;;;;;;0.57;0.57;;;;;;;;;;1827700;76;26368;-51
2022/08/25 05:07:49;;;;;;;3.02;0.70;;;;;;;;;;1840937;76;26286;-49
2022/08/25 05:10:16;;;;;;;4.30;0.60;;;;;;;;;;1839864;76;26436;-52
2022/08/25 05:12:43;;;;;;;4.60;0.57;;;;;;;;;;1836675;76;26273;-52
2022/08/25 05:15:56;;;;;;;1.00;1.00;;;;;;;;;;1843241;76;26285;-52
2022/08/25 05:17:40;;;;;;;1.12;0.60;;;;;;;;;;1820692;77;26307;-52
2022/08/25 05:20:07;;;;;;;0.60;0.60;;;;;;;;;;1833089;78;26853;-53
2022/08/25 05:22:34;;;;;;;3.00;0.70;;;;;;;;;;1836694;78;26268;-52
2022/08/25 05:25:02;;;;;;;0.90;0.60;;;;;;;;;;1833833;78;26342;-51
2022/08/25 05:27:29;;;;;;;1.77;0.70;;;;;;;;;;1834443;78;26345;-50
2022/08/25 05:29:56;;;;;;;0.60;0.60;;;;;;;;;;1836799;78;26246;-50
2022/08/25 05:32:24;;;;;;;2.02;0.60;;;;;;;;;;1839407;78;26260;-51
2022/08/25 05:34:51;;;;;;;0.95;0.62;;;;;;;;;;1830909;78;26346;-51
2022/08/25 05:37:18;;;;;;;1.55;0.70;;;;;;;;;;1828946;78;26302;-52
2022/08/25 05:39:45;;;;;;;5.30;0.62;;;;;;;;;;1836053;78;26267;-48
2022/08/25 05:42:13;;;;;;;2.27;0.60;;;;;;;;;;1836878;77;26728;-53
2022/08/25 05:44:40;;;;;;;1.65;0.60;;;;;;;;;;1839032;78;26716;-51
2022/08/25 05:47:08;;;;;;;1.62;0.82;;;;;;;;;;1838306;78;26343;-52
2022/08/25 05:49:35;;;;;;;0.85;0.70;;;;;;;;;;1835814;78;26273;-51
2022/08/25 05:52:02;;;;;;;0.57;0.57;;;;;;;;;;1834676;78;26260;-50
2022/08/25 05:54:30;;;;;;;0.50;0.50;;;;;;;;;;1835688;78;26908;-50
2022/08/25 05:56:58;;;;;;;0.72;0.68;;;;;;;;;;1834657;77;26362;-54
2022/08/25 05:59:26;;;;;;;0.70;0.70;;;;;;;;;;1832584;77;26303;-51
2022/08/25 06:04:39;;;;;;;0.60;0.60;;;;;;;;;;1834076;78;27161;-53
2022/08/25 06:07:06;;;;;;;1.65;0.53;;;;;;;;;;1834999;78;26267;-53
2022/08/25 06:09:33;;;;;;;0.57;0.57;;;;;;;;;;1834702;78;26322;-52
2022/08/25 06:12:01;;;;;;;0.50;0.50;;;;;;;;;;1834901;77;27543;-53
2022/08/25 06:14:28;;;;;;;1.65;0.50;;;;;;;;;;1837779;78;26284;-50
2022/08/25 06:16:56;;;;;;;1.30;0.70;;;;;;;;;;1837915;77;26346;-51
2022/08/25 06:19:23;;;;;;;0.60;0.60;;;;;;;;;;1836243;77;26697;-53
2022/08/25 06:21:52;;;;;;;1.75;0.70;;;;;;;;;;1834351;78;26600;-50
2022/08/25 06:24:19;;;;;;;5.17;0.62;;;;;;;;;;1833539;78;26329;-47
2022/08/25 06:26:46;;;;;;;8.48;0.80;;;;;;;;;;1838066;78;26338;-51
2022/08/25 06:29:14;;;;;;;7.62;0.70;;;;;;;;;;1834183;78;26303;-48
2022/08/25 06:31:41;;;;;;;1.60;0.70;;;;;;;;;;1836486;78;26728;-49
2022/08/25 06:34:08;;;;;;;0.70;0.70;;;;;;;;;;1830610;78;26264;-47
2022/08/25 06:36:36;;;;;;;1.40;0.90;;;;;;;;;;1837129;77;26291;-46
2022/08/25 06:39:03;;;;;;;1.57;0.62;;;;;;;;;;1837898;77;27710;-50
2022/08/25 06:41:31;;;;;;;1.60;0.75;;;;;;;;;;1829470;78;26349;-51
2022/08/25 06:43:58;;;;;;;3.45;0.78;;;;;;;;;;1831147;78;26280;-54
2022/08/25 06:46:26;;;;;;;2.87;0.70;;;;;;;;;;1833687;78;26252;-46
2022/08/25 06:48:55;;;;;;;1.98;0.75;;;;;;;;;;1835742;78;26272;-45
2022/08/25 06:51:24;;;;;;;1.32;0.72;;;;;;;;;;1837506;77;26397;-47
2022/08/25 06:53:52;;;;;;;1.12;0.70;;;;;;;;;;1839030;78;26360;-45
2022/08/25 06:56:20;;;;;;;1.02;0.82;;;;;;;;;;1834670;78;26331;-45
2022/08/25 06:58:48;;;;;;;0.70;0.70;;;;;;;;;;1833709;77;26362;-46
2022/08/25 07:01:18;;;;;;;0.60;0.60;;;;;;;;;;1833313;78;26271;-45
2022/08/25 07:03:46;;;;;;;2.37;0.80;;;;;;;;;;1829295;78;26268;-47
2022/08/25 07:06:13;;;;;;;0.70;0.62;;;;;;;;;;1835057;78;26940;-48
2022/08/25 07:08:41;;;;;;;2.17;0.75;;;;;;;;;;1826200;78;26260;-47
2022/08/25 07:11:09;;;;;;;0.60;0.60;;;;;;;;;;1835585;78;26862;-49
2022/08/25 07:13:37;;;;;;;1.05;0.80;;;;;;;;;;1823889;78;26241;-44
2022/08/25 07:16:05;;;;;;;0.57;0.57;;;;;;;;;;1836004;77;26727;-47
2022/08/25 07:18:33;;;;;;;1.85;0.60;;;;;;;;;;1840051;76;26298;-47
2022/08/25 07:21:00;;;;;;;0.50;0.50;;;;;;;;;;1857497;75;26727;-47
2022/08/25 07:23:28;;;;;;;0.90;0.60;;;;;;;;;;1850041;76;26318;-50
2022/08/25 07:25:55;;;;;;;1.72;0.68;;;;;;;;;;1849725;76;26280;-47
2022/08/25 07:28:23;;;;;;;0.60;0.60;;;;;;;;;;1868960;76;26311;-47
2022/08/25 07:30:50;;;;;;;2.40;0.75;;;;;;;;;;1852500;76;26263;-47
2022/08/25 07:33:18;;;;;;;2.58;0.50;;;;;;;;;;1856425;76;27541;-49
2022/08/25 07:35:45;;;;;;;2.27;0.70;;;;;;;;;;1874603;76;26723;-48
2022/08/25 07:38:12;;;;;;;0.47;0.47;;;;;;;;;;1874172;76;26653;-47
2022/08/25 07:40:40;;;;;;;0.57;0.57;;;;;;;;;;1861451;76;26283;-49
2022/08/25 07:43:07;;;;;;;0.82;0.68;;;;;;;;;;1875408;75;26199;-48
2022/08/25 07:45:36;;;;;;;0.88;0.68;;;;;;;;;;1854547;76;26280;-52
2022/08/25 07:48:05;;;;;;;0.40;0.40;;;;;;;;;;1850908;75;26773;-52
2022/08/25 07:50:33;;;;;;;1.20;0.50;;;;;;;;;;1862208;76;26895;-51
2022/08/25 07:53:01;;;;;;;0.50;0.50;;;;;;;;;;1878211;76;26749;-52
2022/08/25 07:55:29;;;;;;;1.75;0.50;;;;;;;;;;1876590;76;26261;-47
2022/08/25 07:57:58;;;;;;;0.40;0.40;;;;;;;;;;1872910;75;26576;-46
2022/08/25 08:00:30;;;;;;;0.45;0.45;;;;;;;;;;1856736;75;26298;-48
2022/08/25 08:02:58;;;;;;;0.57;0.57;;;;;;;;;;1866205;76;26304;-49
2022/08/25 08:05:25;;;;;;;1.35;0.70;;;;;;;;;;1875144;76;26797;-49
2022/08/25 08:07:53;;;;;;;0.50;0.50;;;;;;;;;;1865095;76;26310;-54
2022/08/25 08:10:22;;;;;;;0.65;0.45;;;;;;;;;;1864396;76;26783;-52
2022/08/25 08:12:49;;;;;;;0.40;0.40;;;;;;;;;;1856972;76;26274;-53
2022/08/25 08:15:18;;;;;;;0.50;0.50;;;;;;;;;;1868104;76;26730;-55
2022/08/25 08:17:46;;;;;;;0.47;0.45;;;;;;;;;;1864495;76;26728;-51
2022/08/25 08:20:13;;;;;;;0.30;0.30;;;;;;;;;;1862924;76;26269;-53
2022/08/25 08:22:42;;;;;;;0.40;0.40;;;;;;;;;;1862120;76;26819;-53
2022/08/25 08:25:10;;;;;;;0.35;0.35;;;;;;;;;;1860325;76;26269;-51
2022/08/25 08:27:38;;;;;;;0.30;0.30;;;;;;;;;;1866195;75;26817;-51
2022/08/25 08:30:05;;;;;;;0.50;0.50;;;;;;;;;;1869585;76;26298;-57
2022/08/25 08:32:33;;;;;;;0.50;0.50;;;;;;;;;;1867032;75;26331;-55
2022/08/25 08:35:00;;;;;;;0.37;0.37;;;;;;;;;;1858841;76;26242;-50
2022/08/25 08:37:28;;;;;;;0.50;0.50;;;;;;;;;;1862800;76;26374;-51
2022/08/25 08:39:55;;;;;;;0.45;0.45;;;;;;;;;;1863810;76;26237;-48
2022/08/25 08:42:30;;;;;;;0.50;0.50;;;;;;;;;;1862933;76;26284;-49
2022/08/25 08:45:06;;;;;;;0.45;0.40;;;;;;;;;;1856767;76;26262;-53
2022/08/25 08:47:35;;;;;;;0.42;0.42;;;;;;;;;;1857622;76;26771;-54
2022/08/25 08:50:04;;;;;;;0.30;0.30;;;;;;;;;;1855155;76;26712;-50
2022/08/25 08:52:48;;;;;;;0.40;0.40;;;;;;;;;;1860094;76;26276;-49
2022/08/25 08:55:17;;;;;;;1.65;0.35;;;;;;;;;;1862313;76;26264;-50
2022/08/25 08:57:46;;;;;;;0.28;0.28;;;;;;;;;;1865983;75;26856;-51
2022/08/25 09:00:14;;;;;;;0.42;0.42;;;;;;;;;;1867326;75;26260;-48
2022/08/25 09:02:43;;;;;;;0.30;0.30;;;;;;;;;;1856543;76;26272;-49
2022/08/25 09:05:15;;;;;;;0.50;0.50;;;;;;;;;;1868038;76;26268;-49
2022/08/25 09:07:50;;;;;;;1.30;0.37;;;;;;;;;;1859293;76;26228;-52
2022/08/25 09:10:18;;;;;;;0.80;0.50;;;;;;;;;;1855952;76;26878;-51
2022/08/25 09:12:56;;;;;;;0.40;0.40;;;;;;;;;;1860264;76;26305;-48
2022/08/25 09:18:30;;;;;;;0.28;0.28;;;;;;;;;;1860925;76;26352;-48
2022/08/25 09:21:17;;;;;;;1.90;0.45;;;;;;;;;;1849310;76;26701;-49
2022/08/25 09:23:46;;;;;;;4.95;0.70;;;;;;;;;;1844064;76;26261;-49
2022/08/25 09:26:18;;;;;;;0.93;0.40;;;;;;;;;;1847851;76;26341;-48
2022/08/25 09:28:49;;;;;;;0.40;0.40;;;;;;;;;;1815312;77;26268;-48
2022/08/25 09:31:27;;;;;;;0.30;0.30;;;;;;;;;;1797432;79;26392;-47
2022/08/25 09:33:57;;;;;;;0.40;0.40;;;;;;;;;;1836762;77;26390;-49
2022/08/25 09:36:25;;;;;;;0.65;0.30;;;;;;;;;;1785200;79;26322;-50
2022/08/25 09:38:53;;;;;;;0.28;0.28;;;;;;;;;;1785614;79;26274;-48
2022/08/25 09:41:21;;;;;;;0.40;0.40;;;;;;;;;;1845482;76;26362;-48
2022/08/25 09:43:53;;;;;;;0.40;0.40;;;;;;;;;;1854532;76;26332;-47
2022/08/25 09:46:24;;;;;;;0.40;0.40;;;;;;;;;;1848335;76;26759;-49
2022/08/25 09:48:53;;;;;;;1.10;0.30;;;;;;;;;;1847186;76;26362;-52
2022/08/25 09:51:31;;;;;;;0.98;0.30;;;;;;;;;;1847651;76;26473;-48
2022/08/25 09:53:59;;;;;;;1.65;0.40;;;;;;;;;;1847478;77;26424;-48
2022/08/25 09:56:28;;;;;;;0.50;0.50;;;;;;;;;;1846756;77;26291;-49
2022/08/25 09:58:56;;;;;;;0.30;0.30;;;;;;;;;;1838921;76;27123;-48
2022/08/25 10:01:23;;;;;;;1.20;0.40;;;;;;;;;;1844632;76;26816;-49
2022/08/25 10:04:04;;;;;;;0.30;0.30;;;;;;;;;;1844250;77;26267;-47
2022/08/25 10:06:36;;;;;;;1.55;0.40;;;;;;;;;;1847544;76;26254;-47
2022/08/25 10:09:05;;;;;;;0.35;0.35;;;;;;;;;;1845204;76;26349;-46
2022/08/25 10:11:34;;;;;;;1.37;0.40;;;;;;;;;;1847530;76;26264;-47
2022/08/25 10:14:03;;;;;;;0.40;0.40;;;;;;;;;;1841217;76;26303;-52
2022/08/25 10:16:31;;;;;;;0.40;0.40;;;;;;;;;;1847891;76;26775;-47
2022/08/25 10:19:06;;;;;;;0.30;0.30;;;;;;;;;;1847901;77;26369;-47
2022/08/25 10:21:33;;;;;;;0.47;0.47;;;;;;;;;;1871085;76;26737;-47
2022/08/25 10:24:01;;;;;;;0.40;0.40;;;;;;;;;;1872318;76;26273;-51
2022/08/25 10:26:48;;;;;;;0.45;0.45;;;;;;;;;;1860816;76;26269;-52
2022/08/25 10:29:20;;;;;;;0.40;0.40;;;;;;;;;;1859646;76;26261;-50
2022/08/25 10:31:52;;;;;;;0.50;0.50;;;;;;;;;;1859185;76;26334;-54
2022/08/25 10:34:27;;;;;;;0.50;0.50;;;;;;;;;;1857881;76;26277;-49
2022/08/25 10:37:12;;;;;;;0.50;0.50;;;;;;;;;;1869758;76;26221;-46
2022/08/25 10:39:41;;;;;;;0.60;0.45;;;;;;;;;;1872665;76;26827;-47
2022/08/25 10:42:22;;;;;;;0.50;0.50;;;;;;;;;;1879233;76;27429;-51
2022/08/25 10:48:00;;;;;;;0.70;0.70;;;;;;;;;;1851990;76;26768;-49
2022/08/25 10:50:32;;;;;;;0.50;0.50;;;;;;;;;;1864423;76;26301;-49
2022/08/25 10:53:13;;;;;;;0.37;0.37;;;;;;;;;;1872922;76;26257;-53
2022/08/25 10:55:45;;;;;;;0.50;0.50;;;;;;;;;;1878090;76;26823;-54
2022/08/25 10:58:23;;;;;;;0.50;0.50;;;;;;;;;;1873479;76;26688;-51
2022/08/25 11:00:52;;;;;;;0.40;0.40;;;;;;;;;;1868841;76;26345;-52
2022/08/25 11:03:38;;;;;;;0.55;0.33;;;;;;;;;;1858584;76;26276;-53
2022/08/25 11:06:06;;;;;;;0.40;0.40;;;;;;;;;;1855380;76;26338;-55
2022/08/25 11:08:35;;;;;;;0.37;0.37;;;;;;;;;;1871647;76;26257;-52
2022/08/25 11:11:08;;;;;;;0.50;0.50;;;;;;;;;;1874708;76;26327;-51
2022/08/25 11:13:43;;;;;;;0.40;0.40;;;;;;;;;;1856897;76;26300;-53
2022/08/25 11:16:14;;;;;;;0.47;0.47;;;;;;;;;;1863505;76;26258;-52
2022/08/25 11:18:46;;;;;;;0.50;0.50;;;;;;;;;;1866172;76;26958;-52
2022/08/25 11:21:15;;;;;;;0.50;0.50;;;;;;;;;;1842265;76;26303;-50
2022/08/25 11:23:49;;;;;;;0.40;0.40;;;;;;;;;;1838717;77;26362;-52
2022/08/25 11:26:18;;;;;;;0.37;0.37;;;;;;;;;;1836281;77;26763;-53
2022/08/25 11:28:53;;;;;;;0.33;0.33;;;;;;;;;;1844610;77;26354;-51
2022/08/25 11:31:22;;;;;;;0.50;0.50;;;;;;;;;;1835646;77;27134;-47
2022/08/25 11:33:50;;;;;;;0.40;0.40;;;;;;;;;;1842324;77;26260;-48
2022/08/25 11:36:25;;;;;;;0.40;0.40;;;;;;;;;;1830636;76;26272;-47
2022/08/25 11:38:54;;;;;;;0.40;0.40;;;;;;;;;;1833952;77;26705;-51
2022/08/25 11:41:23;;;;;;;0.40;0.40;;;;;;;;;;1839397;77;27498;-50
2022/08/25 11:44:08;;;;;;;0.40;0.40;;;;;;;;;;1841250;77;26279;-50
2022/08/25 11:46:44;;;;;;;0.40;0.40;;;;;;;;;;1833194;77;26284;-48
2022/08/25 11:49:30;;;;;;;0.40;0.40;;;;;;;;;;1834683;77;26363;-48
2022/08/25 11:51:58;;;;;;;0.50;0.50;;;;;;;;;;1837682;77;26238;-48
2022/08/25 11:54:42;;;;;;;1.95;0.42;;;;;;;;;;1824255;77;26354;-48
2022/08/25 11:57:10;;;;;;;0.35;0.35;;;;;;;;;;1817447;77;26335;-52
2022/08/25 11:59:51;;;;;;;0.45;0.45;;;;;;;;;;1832088;77;26306;-47
2022/08/25 12:02:30;;;;;;;0.42;0.42;;;;;;;;;;1850052;76;26274;-50
2022/08/25 12:04:57;;;;;;;0.30;0.30;;;;;;;;;;1842447;76;26968;-47
2022/08/25 12:07:26;;;;;;;0.50;0.50;;;;;;;;;;1829382;77;26272;-53
2022/08/25 12:09:55;;;;;;;0.45;0.45;;;;;;;;;;1844930;77;26275;-47
2022/08/25 12:12:43;;;;;;;1.22;0.40;;;;;;;;;;1843039;77;26276;-48
2022/08/25 12:15:15;;;;;;;4.37;0.78;;;;;;;;;;1841185;77;26925;-56
2022/08/25 12:17:42;;;;;;;0.60;0.60;;;;;;;;;;1839909;77;26327;-48
2022/08/25 12:20:09;;;;;;;0.42;0.42;;;;;;;;;;1845249;76;26292;-51
2022/08/25 12:22:38;;;;;;;0.62;0.62;;;;;;;;;;1848584;76;26417;-50
2022/08/25 12:25:10;;;;;;;1.98;0.60;;;;;;;;;;1836641;76;26285;-48
2022/08/25 12:27:39;;;;;;;0.60;0.45;;;;;;;;;;1836000;76;26269;-51
2022/08/25 12:30:23;;;;;;;0.72;0.50;;;;;;;;;;1828377;76;26247;-52
2022/08/25 12:33:08;;;;;;;0.95;0.50;;;;;;;;;;1834058;77;26335;-52
2022/08/25 12:35:49;;;;;;;1.27;0.33;;;;;;;;;;1829699;76;26861;-47
2022/08/25 12:38:18;;;;;;;1.10;0.40;;;;;;;;;;1829701;77;26284;-46
2022/08/25 12:40:47;;;;;;;0.70;0.50;;;;;;;;;;1832660;77;26722;-49
2022/08/25 12:43:31;;;;;;;0.95;0.40;;;;;;;;;;1831999;76;26851;-49
2022/08/25 12:46:15;;;;;;;2.75;0.40;;;;;;;;;;1827699;76;26257;-47
2022/08/25 12:48:44;;;;;;;0.50;0.50;;;;;;;;;;1723987;81;26312;-47
2022/08/25 12:51:16;;;;;;;1.15;0.40;;;;;;;;;;1803802;76;27189;-48
2022/08/25 12:53:45;;;;;;;1.00;0.40;;;;;;;;;;1831768;76;27467;-49
2022/08/25 12:56:20;;;;;;;1.07;0.53;;;;;;;;;;1833486;76;26811;-54
2022/08/25 12:58:49;;;;;;;0.50;0.50;;;;;;;;;;1828024;76;26276;-48
2022/08/25 13:01:20;;;;;;;0.55;0.50;;;;;;;;;;1847910;77;26304;-47
2022/08/25 13:04:01;;;;;;;2.15;0.40;;;;;;;;;;1846606;76;26268;-48
2022/08/25 13:06:33;;;;;;;0.45;0.45;;;;;;;;;;1845937;77;26331;-51
2022/08/25 13:09:02;;;;;;;0.62;0.40;;;;;;;;;;1844353;76;26338;-49
2022/08/25 13:11:34;;;;;;;0.70;0.47;;;;;;;;;;1846017;76;26362;-52
2022/08/25 13:14:09;;;;;;;0.80;0.50;;;;;;;;;;1841283;77;26225;-48
2022/08/25 13:16:36;;;;;;;0.60;0.50;;;;;;;;;;1856010;76;26284;-49
2022/08/25 13:19:05;;;;;;;0.35;0.35;;;;;;;;;;1841657;76;26225;-48
2022/08/25 13:21:39;;;;;;;0.60;0.60;;;;;;;;;;1854689;76;26293;-52
2022/08/25 13:24:09;;;;;;;0.60;0.60;;;;;;;;;;1874226;76;26728;-52
2022/08/25 13:26:41;;;;;;;0.50;0.50;;;;;;;;;;1862711;76;26273;-52
2022/08/25 13:29:10;;;;;;;0.45;0.45;;;;;;;;;;1867822;75;26290;-50
2022/08/25 13:31:38;;;;;;;0.40;0.40;;;;;;;;;;1877075;76;26269;-53
2022/08/25 13:34:07;;;;;;;3.95;0.75;;;;;;;;;;1877209;76;26281;-52
2022/08/25 13:39:34;;;;;;;0.45;0.45;;;;;;;;;;1866721;76;26345;-50
2022/08/25 13:42:03;;;;;;;0.72;0.40;;;;;;;;;;1870543;76;26305;-49
2022/08/25 13:44:31;;;;;;;0.50;0.50;;;;;;;;;;1864947;76;27837;-52
2022/08/25 13:47:09;;;;;;;3.72;0.50;;;;;;;;;;1860171;76;26278;-48
2022/08/25 13:49:37;;;;;;;0.50;0.50;;;;;;;;;;1871253;76;26261;-51
2022/08/25 13:52:06;;;;;;;0.40;0.40;;;;;;;;;;1875051;76;26241;-50
2022/08/25 13:54:38;;;;;;;0.40;0.40;;;;;;;;;;1835531;77;26316;-47
2022/08/25 13:57:07;;;;;;;0.40;0.40;;;;;;;;;;1870187;76;26268;-48
2022/08/25 13:59:36;;;;;;;0.50;0.50;;;;;;;;;;1859695;76;26264;-49
2022/08/25 14:02:04;;;;;;;0.50;0.50;;;;;;;;;;1868319;76;26218;-52
2022/08/25 14:04:42;;;;;;;0.50;0.50;;;;;;;;;;1873764;76;26241;-51
2022/08/25 14:07:13;;;;;;;0.50;0.50;;;;;;;;;;1870703;76;26257;-49
2022/08/25 14:09:48;;;;;;;0.40;0.40;;;;;;;;;;1875846;76;26280;-48
2022/08/25 14:12:34;;;;;;;0.50;0.50;;;;;;;;;;1867410;76;26838;-52
2022/08/25 14:15:03;;;;;;;0.68;0.68;;;;;;;;;;1835904;77;26762;-48
2022/08/25 14:17:31;;;;;;;0.50;0.50;;;;;;;;;;1865202;76;26300;-51
2022/08/25 14:19:58;;;;;;;0.42;0.42;;;;;;;;;;1872276;76;26269;-52
2022/08/25 14:22:26;;;;;;;0.50;0.50;;;;;;;;;;1867473;75;26359;-52
2022/08/25 14:24:54;;;;;;;0.60;0.60;;;;;;;;;;1873662;75;26758;-50
2022/08/25 14:27:21;;;;;;;0.50;0.50;;;;;;;;;;1878873;75;26252;-50
2022/08/25 14:29:49;;;;;;;0.68;0.50;;;;;;;;;;1874800;75;26353;-50
2022/08/25 14:32:16;;;;;;;0.50;0.50;;;;;;;;;;1880412;74;26318;-52
2022/08/25 14:34:44;;;;;;;0.40;0.40;;;;;;;;;;1873640;74;26242;-48
2022/08/25 14:37:13;;;;;;;0.60;0.60;;;;;;;;;;1877566;75;26346;-52
2022/08/25 14:39:40;;;;;;;0.50;0.50;;;;;;;;;;1871108;75;26594;-49
2022/08/25 14:42:08;;;;;;;0.60;0.60;;;;;;;;;;1878231;75;26918;-51
2022/08/25 14:44:35;;;;;;;0.47;0.47;;;;;;;;;;1871042;75;26349;-51
2022/08/25 14:47:03;;;;;;;1.00;0.40;;;;;;;;;;1870756;75;26319;-52
2022/08/25 14:49:32;;;;;;;0.40;0.40;;;;;;;;;;1872002;75;26546;-53
2022/08/25 14:52:10;;;;;;;0.40;0.40;;;;;;;;;;1878431;75;26354;-53
2022/08/25 14:54:37;;;;;;;0.82;0.57;;;;;;;;;;1867227;75;26302;-53
2022/08/25 14:57:04;;;;;;;1.37;0.50;;;;;;;;;;1874984;75;26303;-54
2022/08/25 14:59:32;;;;;;;0.40;0.40;;;;;;;;;;1873829;74;26322;-51
2022/08/25 15:02:00;;;;;;;0.42;0.42;;;;;;;;;;1883849;75;26322;-50
2022/08/25 15:04:29;;;;;;;0.40;0.40;;;;;;;;;;1871038;75;26663;-53
2022/08/25 15:06:57;;;;;;;0.55;0.55;;;;;;;;;;1871490;75;26817;-52
2022/08/25 15:09:25;;;;;;;1.90;0.42;;;;;;;;;;1873042;75;26834;-54
2022/08/25 15:11:53;;;;;;;0.40;0.40;;;;;;;;;;1870537;75;26704;-48